createdAt,value
2019-05-11T00:00:07.729Z,13.60
2019-05-11T00:02:36.541Z,13.70
2019-05-11T00:05:06.707Z,13.70
2019-05-11T00:07:35.660Z,13.70
2019-05-11T00:10:07.327Z,13.60
2019-05-11T00:12:36.229Z,13.50
2019-05-11T00:15:06.175Z,13.40
2019-05-11T00:17:35.064Z,13.40
2019-05-11T00:20:05.232Z,13.60
2019-05-11T00:22:34.199Z,13.50
2019-05-11T00:25:03.046Z,13.50
2019-05-11T00:27:31.884Z,13.50
2019-05-11T00:30:00.679Z,13.50
2019-05-11T00:32:29.466Z,13.40
2019-05-11T00:34:58.414Z,13.50
2019-05-11T00:37:27.278Z,13.40
2019-05-11T00:39:56.160Z,13.50
2019-05-11T00:42:24.944Z,13.40
2019-05-11T00:44:53.835Z,13.40
2019-05-11T00:47:22.663Z,13.40
2019-05-11T00:49:51.453Z,13.50
2019-05-11T00:52:20.342Z,13.60
2019-05-11T00:54:49.124Z,13.70
2019-05-11T00:57:18.366Z,13.70
2019-05-11T00:59:47.155Z,13.60
2019-05-11T01:02:15.971Z,13.50
2019-05-11T01:04:44.898Z,13.30
2019-05-11T01:07:13.798Z,13.30
2019-05-11T01:09:42.604Z,13.30
2019-05-11T01:12:11.476Z,13.30
2019-05-11T01:14:40.327Z,13.40
2019-05-11T01:17:09.174Z,13.30
2019-05-11T01:19:38.425Z,13.30
2019-05-11T01:22:07.214Z,13.40
2019-05-11T01:24:36.134Z,13.40
2019-05-11T01:27:04.962Z,13.40
2019-05-11T01:29:33.848Z,13.40
2019-05-11T01:32:02.685Z,13.50
2019-05-11T01:34:31.581Z,13.60
2019-05-11T01:37:00.385Z,13.50
2019-05-11T01:39:29.154Z,13.40
2019-05-11T01:41:57.979Z,13.30
2019-05-11T01:44:26.772Z,13.30
2019-05-11T01:46:55.588Z,13.40
2019-05-11T01:49:24.376Z,13.30
2019-05-11T01:51:53.179Z,13.40
2019-05-11T01:54:22.326Z,13.30
2019-05-11T01:56:51.140Z,13.20
2019-05-11T01:59:19.985Z,13.40
2019-05-11T02:01:48.801Z,13.40
2019-05-11T02:04:17.585Z,13.30
2019-05-11T02:06:46.389Z,13.40
2019-05-11T02:09:15.251Z,13.30
2019-05-11T02:11:44.083Z,13.30
2019-05-11T02:14:12.871Z,13.10
2019-05-11T02:16:41.668Z,13.10
2019-05-11T02:19:10.553Z,13.00
2019-05-11T02:21:39.346Z,12.90
2019-05-11T02:24:08.233Z,12.80
2019-05-11T02:26:37.102Z,12.80
2019-05-11T02:29:05.920Z,12.90
2019-05-11T02:31:34.766Z,12.80
2019-05-11T02:34:03.726Z,12.80
2019-05-11T02:36:32.626Z,12.90
2019-05-11T02:39:01.464Z,12.90
2019-05-11T02:41:36.382Z,13.00
2019-05-11T02:44:00.743Z,13.10
2019-05-11T02:46:29.603Z,13.10
2019-05-11T02:48:58.399Z,13.10
2019-05-11T02:51:29.189Z,13.20
2019-05-11T02:53:59.339Z,13.20
2019-05-11T02:56:28.166Z,13.20
2019-05-11T02:58:57.009Z,13.30
2019-05-11T03:01:25.845Z,13.20
2019-05-11T03:03:58.663Z,13.30
2019-05-11T03:06:28.012Z,13.20
2019-05-11T03:08:56.836Z,13.20
2019-05-11T03:11:27.586Z,12.90
2019-05-11T03:13:56.434Z,13.00
2019-05-11T03:16:25.291Z,13.20
2019-05-11T03:18:54.193Z,13.20
2019-05-11T03:21:22.978Z,13.30
2019-05-11T03:23:51.892Z,13.30
2019-05-11T03:26:20.684Z,13.30
2019-05-11T03:28:49.582Z,13.00
2019-05-11T03:31:18.384Z,12.90
2019-05-11T03:33:47.263Z,12.80
2019-05-11T03:36:16.042Z,12.60
2019-05-11T03:38:44.867Z,12.70
2019-05-11T03:41:13.734Z,12.60
2019-05-11T03:43:42.517Z,12.60
2019-05-11T03:46:11.329Z,12.60
2019-05-11T03:48:40.119Z,12.50
2019-05-11T03:51:08.989Z,12.40
2019-05-11T03:53:37.835Z,12.40
2019-05-11T03:56:06.716Z,12.30
2019-05-11T03:58:35.523Z,12.30
2019-05-11T04:01:04.403Z,12.30
2019-05-11T04:03:33.191Z,12.30
2019-05-11T04:06:02.012Z,12.30
2019-05-11T04:08:30.807Z,12.40
2019-05-11T04:10:59.679Z,12.40
2019-05-11T04:13:28.552Z,12.40
2019-05-11T04:15:57.379Z,12.30
2019-05-11T04:18:26.233Z,12.30
2019-05-11T04:20:55.095Z,12.40
2019-05-11T04:23:23.921Z,12.50
2019-05-11T04:25:52.770Z,12.50
2019-05-11T04:28:21.669Z,12.50
2019-05-11T04:30:50.537Z,12.30
2019-05-11T04:33:19.355Z,12.10
2019-05-11T04:35:48.133Z,12.10
2019-05-11T04:38:16.965Z,12.10
2019-05-11T04:40:45.744Z,12.20
2019-05-11T04:43:14.664Z,12.20
2019-05-11T04:45:43.464Z,12.20
2019-05-11T04:48:12.319Z,12.30
2019-05-11T04:50:41.208Z,12.40
2019-05-11T04:53:09.995Z,12.60
2019-05-11T04:55:38.819Z,12.60
2019-05-11T04:58:07.661Z,12.70
2019-05-11T05:00:41.537Z,12.80
2019-05-11T05:03:10.317Z,12.70
2019-05-11T05:05:39.086Z,12.80
2019-05-11T05:08:09.883Z,12.80
2019-05-11T05:10:38.437Z,12.80
2019-05-11T05:13:10.466Z,12.70
2019-05-11T05:15:37.754Z,12.60
2019-05-11T05:18:06.671Z,12.50
2019-05-11T05:20:35.448Z,12.70
2019-05-11T05:23:04.230Z,12.80
2019-05-11T05:25:33.120Z,12.70
2019-05-11T05:28:02.059Z,12.70
2019-05-11T05:30:31.008Z,12.70
2019-05-11T05:33:00.946Z,12.90
2019-05-11T05:35:31.446Z,12.90
2019-05-11T05:38:00.237Z,12.90
2019-05-11T05:40:29.129Z,12.70
2019-05-11T05:43:02.158Z,12.70
2019-05-11T05:45:31.053Z,12.80
2019-05-11T05:48:00.425Z,12.90
2019-05-11T05:50:29.309Z,12.90
2019-05-11T05:52:58.161Z,13.10
2019-05-11T05:55:26.985Z,12.80
2019-05-11T05:57:56.822Z,12.80
2019-05-11T06:00:27.490Z,12.90
2019-05-11T06:02:56.372Z,13.10
2019-05-11T06:05:25.216Z,13.20
2019-05-11T06:07:54.132Z,13.20
2019-05-11T06:10:24.389Z,13.40
2019-05-11T06:12:53.238Z,13.40
2019-05-11T06:15:22.017Z,13.60
2019-05-11T06:17:50.812Z,13.50
2019-05-11T06:20:19.811Z,13.70
2019-05-11T06:22:50.262Z,13.80
2019-05-11T06:25:20.556Z,13.90
2019-05-11T06:27:49.356Z,14.10
2019-05-11T06:30:19.544Z,14.20
2019-05-11T06:32:48.390Z,14.30
2019-05-11T06:35:17.705Z,14.30
2019-05-11T06:37:46.479Z,14.40
2019-05-11T06:40:15.628Z,14.50
2019-05-11T06:42:44.454Z,14.50
2019-05-11T06:45:13.347Z,14.60
2019-05-11T06:47:42.275Z,14.80
2019-05-11T06:50:11.232Z,15.20
2019-05-11T06:52:40.017Z,15.60
2019-05-11T06:55:08.944Z,15.70
2019-05-11T06:57:37.709Z,15.70
2019-05-11T07:00:06.914Z,15.80
2019-05-11T07:02:35.768Z,15.90
2019-05-11T07:05:06.287Z,16.00
2019-05-11T07:07:47.178Z,16.00
2019-05-11T07:10:06.856Z,16.20
2019-05-11T07:12:35.700Z,16.50
2019-05-11T07:15:06.434Z,16.60
2019-05-11T07:17:35.217Z,17.10
2019-05-11T07:20:07.106Z,17.50
2019-05-11T07:22:35.882Z,17.80
2019-05-11T07:25:08.474Z,17.90
2019-05-11T07:27:37.321Z,18.20
2019-05-11T07:30:08.136Z,18.10
2019-05-11T07:32:38.425Z,18.10
2019-05-11T07:35:08.407Z,18.50
2019-05-11T07:37:38.492Z,18.70
2019-05-11T07:40:08.826Z,19.00
2019-05-11T07:42:38.941Z,19.20
2019-05-11T07:45:09.084Z,19.20
2019-05-11T07:47:38.193Z,19.30
2019-05-11T07:50:08.388Z,19.50
2019-05-11T07:52:37.970Z,19.60
2019-05-11T07:55:08.720Z,20.00
2019-05-11T07:57:39.136Z,20.30
2019-05-11T08:00:08.555Z,20.90
2019-05-11T08:02:38.636Z,21.10
2019-05-11T08:05:09.008Z,21.40
2019-05-11T08:07:38.045Z,21.40
2019-05-11T08:10:10.003Z,21.80
2019-05-11T08:12:39.324Z,22.20
2019-05-11T08:15:13.006Z,23.00
2019-05-11T08:17:38.955Z,24.10
2019-05-11T08:20:08.540Z,24.10
2019-05-11T08:22:37.810Z,24.10
2019-05-11T08:25:09.192Z,25.40
2019-05-11T08:27:38.090Z,26.50
2019-05-11T08:30:11.939Z,27.30
2019-05-11T08:32:40.886Z,27.20
2019-05-11T08:35:09.863Z,26.40
2019-05-11T08:37:39.675Z,24.90
2019-05-11T08:40:09.303Z,24.40
2019-05-11T08:42:38.100Z,24.40
2019-05-11T08:45:19.545Z,24.60
2019-05-11T08:47:37.906Z,25.60
2019-05-11T08:50:08.183Z,26.40
2019-05-11T08:52:38.651Z,27.20
2019-05-11T08:55:08.504Z,27.40
2019-05-11T08:57:38.719Z,26.60
2019-05-11T09:00:10.356Z,25.90
2019-05-11T09:02:39.178Z,24.70
2019-05-11T09:05:08.438Z,23.20
2019-05-11T09:07:38.387Z,22.30
2019-05-11T09:10:08.267Z,21.70
2019-05-11T09:12:38.222Z,22.70
2019-05-11T09:15:08.871Z,23.10
2019-05-11T09:17:38.277Z,22.40
2019-05-11T09:20:08.956Z,22.60
2019-05-11T09:22:38.241Z,23.40
2019-05-11T09:25:08.915Z,24.40
2019-05-11T09:27:37.867Z,25.10
2019-05-11T09:30:10.372Z,25.20
2019-05-11T09:32:39.227Z,24.30
2019-05-11T09:35:08.488Z,23.40
2019-05-11T09:37:38.040Z,24.30
2019-05-11T09:40:08.012Z,26.50
2019-05-11T09:42:38.923Z,28.30
2019-05-11T09:45:08.202Z,29.30
2019-05-11T09:47:38.618Z,29.00
2019-05-11T09:50:09.576Z,28.30
2019-05-11T09:52:38.672Z,26.70
2019-05-11T09:55:08.941Z,25.20
2019-05-11T09:57:38.288Z,24.20
2019-05-11T10:00:10.723Z,23.70
2019-05-11T10:02:39.638Z,24.70
2019-05-11T10:05:08.618Z,25.90
2019-05-11T10:07:38.092Z,27.80
2019-05-11T10:10:09.157Z,28.60
2019-05-11T10:12:38.470Z,27.70
2019-05-11T10:15:08.497Z,26.80
2019-05-11T10:17:39.156Z,27.40
2019-05-11T10:20:09.220Z,28.90
2019-05-11T10:22:38.652Z,30.60
2019-05-11T10:25:09.225Z,31.00
2019-05-11T10:27:38.520Z,31.30
2019-05-11T10:30:08.382Z,31.30
2019-05-11T10:32:38.029Z,31.10
2019-05-11T10:35:08.205Z,30.00
2019-05-11T10:37:39.000Z,29.30
2019-05-11T10:40:09.505Z,29.60
2019-05-11T10:42:38.545Z,29.10
2019-05-11T10:45:09.042Z,28.20
2019-05-11T10:47:38.479Z,27.70
2019-05-11T10:50:08.875Z,29.40
2019-05-11T10:52:39.445Z,31.20
2019-05-11T10:55:08.767Z,32.80
2019-05-11T10:57:38.708Z,32.50
2019-05-11T11:00:09.942Z,32.00
2019-05-11T11:02:38.722Z,33.60
2019-05-11T11:05:08.315Z,33.40
2019-05-11T11:07:38.341Z,32.70
2019-05-11T11:10:08.787Z,31.80
2019-05-11T11:12:38.655Z,31.60
2019-05-11T11:15:08.762Z,33.60
2019-05-11T11:17:38.251Z,35.80
2019-05-11T11:20:08.739Z,35.10
2019-05-11T11:22:43.009Z,33.50
2019-05-11T11:25:08.566Z,32.70
2019-05-11T11:27:38.079Z,31.20
2019-05-11T11:30:09.228Z,30.70
2019-05-11T11:32:38.442Z,32.10
2019-05-11T11:35:08.626Z,32.50
2019-05-11T11:37:38.719Z,31.60
2019-05-11T11:40:08.875Z,30.70
2019-05-11T11:42:37.818Z,32.80
2019-05-11T11:45:08.516Z,34.60
2019-05-11T11:47:38.402Z,35.00
2019-05-11T11:50:09.208Z,33.20
2019-05-11T11:52:38.452Z,30.80
2019-05-11T11:55:09.616Z,28.50
2019-05-11T11:57:38.460Z,26.80
2019-05-11T12:00:09.806Z,25.90
2019-05-11T12:02:38.906Z,27.30
2019-05-11T12:05:08.856Z,29.10
2019-05-11T12:07:38.695Z,31.10
2019-05-11T12:10:08.712Z,30.00
2019-05-11T12:12:38.642Z,28.50
2019-05-11T12:15:08.820Z,27.50
2019-05-11T12:17:37.995Z,26.50
2019-05-11T12:20:08.981Z,26.50
2019-05-11T12:22:38.656Z,27.80
2019-05-11T12:25:08.619Z,29.70
2019-05-11T12:27:38.338Z,30.50
2019-05-11T12:30:09.070Z,30.80
2019-05-11T12:32:45.162Z,29.30
2019-05-11T12:35:14.035Z,27.60
2019-05-11T12:37:42.850Z,26.00
2019-05-11T12:40:12.220Z,24.60
2019-05-11T12:42:41.105Z,23.50
2019-05-11T12:45:10.450Z,23.80
2019-05-11T12:47:39.275Z,24.40
2019-05-11T12:50:08.605Z,25.60
2019-05-11T12:52:38.284Z,26.90
2019-05-11T12:55:08.905Z,28.20
2019-05-11T12:57:38.610Z,28.80
2019-05-11T13:00:08.761Z,27.50
2019-05-11T13:02:38.792Z,26.40
2019-05-11T13:05:08.704Z,25.40
2019-05-11T13:07:39.261Z,24.60
2019-05-11T13:10:09.105Z,25.40
2019-05-11T13:12:38.642Z,27.40
2019-05-11T13:15:08.580Z,29.00
2019-05-11T13:17:40.577Z,28.80
2019-05-11T13:20:08.660Z,27.10
2019-05-11T13:22:38.269Z,26.90
2019-05-11T13:25:08.521Z,28.70
2019-05-11T13:27:38.625Z,30.10
2019-05-11T13:30:08.353Z,30.60
2019-05-11T13:32:38.700Z,28.90
2019-05-11T13:35:09.139Z,27.60
2019-05-11T13:37:38.762Z,26.10
2019-05-11T13:40:08.342Z,25.00
2019-05-11T13:42:38.525Z,24.30
2019-05-11T13:45:11.167Z,23.60
2019-05-11T13:47:51.874Z,25.00
2019-05-11T13:50:10.494Z,27.80
2019-05-11T13:52:39.278Z,30.20
2019-05-11T13:55:08.386Z,31.50
2019-05-11T13:57:38.144Z,32.90
2019-05-11T14:00:08.935Z,33.20
2019-05-11T14:02:38.073Z,31.50
2019-05-11T14:05:08.770Z,30.00
2019-05-11T14:07:38.226Z,29.50
2019-05-11T14:10:09.154Z,30.20
2019-05-11T14:12:38.625Z,29.80
2019-05-11T14:15:08.800Z,29.50
2019-05-11T14:17:38.036Z,29.00
2019-05-11T14:20:09.071Z,27.60
2019-05-11T14:22:38.932Z,26.10
2019-05-11T14:25:08.586Z,24.40
2019-05-11T14:27:39.085Z,23.50
2019-05-11T14:30:09.439Z,22.90
2019-05-11T14:32:38.932Z,22.10
2019-05-11T14:35:12.090Z,21.60
2019-05-11T14:37:38.495Z,21.30
2019-05-11T14:40:10.403Z,20.90
2019-05-11T14:42:39.170Z,20.60
2019-05-11T14:45:09.047Z,20.60
2019-05-11T14:47:38.723Z,20.40
2019-05-11T14:50:08.805Z,20.30
2019-05-11T14:52:39.122Z,20.20
2019-05-11T14:55:08.359Z,20.00
2019-05-11T14:57:39.666Z,20.10
2019-05-11T15:00:09.772Z,20.10
2019-05-11T15:02:50.021Z,19.90
2019-05-11T15:05:20.643Z,20.00
2019-05-11T15:07:52.335Z,19.80
2019-05-11T15:10:21.377Z,19.90
2019-05-11T15:12:50.269Z,20.00
2019-05-11T15:15:19.509Z,19.90
2019-05-11T15:17:49.272Z,19.90
2019-05-11T15:20:18.924Z,19.70
2019-05-11T15:22:48.956Z,19.50
2019-05-11T15:25:19.287Z,19.50
2019-05-11T15:27:49.005Z,19.40
2019-05-11T15:30:18.594Z,19.40
2019-05-11T15:32:48.611Z,19.50
2019-05-11T15:35:18.607Z,19.70
2019-05-11T15:37:48.177Z,19.80
2019-05-11T15:40:18.848Z,19.90
2019-05-11T15:42:48.959Z,19.60
2019-05-11T15:45:20.074Z,19.30
2019-05-11T15:47:49.118Z,19.20
2019-05-11T15:50:19.832Z,19.20
2019-05-11T15:52:49.016Z,19.30
2019-05-11T15:55:18.998Z,19.40
2019-05-11T15:57:53.056Z,19.30
2019-05-11T16:00:21.573Z,19.30
2019-05-11T16:02:52.444Z,19.20
2019-05-11T16:05:23.931Z,19.10
2019-05-11T16:07:55.150Z,19.20
2019-05-11T16:10:32.380Z,18.80
2019-05-11T16:13:03.124Z,18.70
2019-05-11T16:15:35.486Z,18.70
2019-05-11T16:18:08.162Z,18.70
2019-05-11T16:20:36.789Z,18.80
2019-05-11T16:23:05.668Z,18.60
2019-05-11T16:25:41.030Z,18.40
2019-05-11T16:28:11.888Z,18.30
2019-05-11T16:30:43.255Z,18.20
2019-05-11T16:33:17.803Z,18.30
2019-05-11T16:35:49.192Z,18.30
2019-05-11T16:38:21.768Z,18.30
2019-05-11T16:40:52.975Z,18.50
2019-05-11T16:43:22.843Z,18.50
2019-05-11T16:46:02.838Z,18.50
2019-05-11T16:48:38.756Z,18.20
2019-05-11T16:51:09.997Z,17.90
2019-05-11T16:53:39.496Z,17.60
2019-05-11T16:56:09.744Z,17.40
2019-05-11T16:58:41.057Z,17.40
2019-05-11T17:01:09.092Z,17.50
2019-05-11T17:03:54.116Z,17.60
2019-05-11T17:06:23.791Z,17.50
2019-05-11T17:09:05.189Z,17.40
2019-05-11T17:11:38.624Z,17.30
2019-05-11T17:14:09.261Z,17.10
2019-05-11T17:16:39.476Z,17.00
2019-05-11T17:19:08.905Z,17.00
2019-05-11T17:21:39.332Z,17.00
2019-05-11T17:24:08.519Z,16.90
2019-05-11T17:26:38.518Z,16.80
2019-05-11T17:29:10.069Z,16.70
2019-05-11T17:31:43.379Z,16.50
2019-05-11T17:34:20.058Z,16.30
2019-05-11T17:36:44.655Z,16.30
2019-05-11T17:39:14.949Z,16.40
2019-05-11T17:41:43.860Z,16.40
2019-05-11T17:44:18.335Z,16.30
2019-05-11T17:46:48.948Z,16.20
2019-05-11T17:49:18.570Z,16.20
2019-05-11T17:51:48.466Z,16.20
2019-05-11T17:54:21.269Z,16.20
2019-05-11T17:56:50.200Z,16.00
2019-05-11T17:59:20.401Z,15.80
2019-05-11T18:01:49.304Z,15.70
2019-05-11T18:04:18.522Z,15.50
2019-05-11T18:06:54.075Z,15.40
2019-05-11T18:09:23.242Z,15.30
2019-05-11T18:11:53.829Z,15.30
2019-05-11T18:14:28.010Z,15.30
2019-05-11T18:17:09.903Z,15.20
2019-05-11T18:19:39.463Z,15.10
2019-05-11T18:22:10.255Z,15.20
2019-05-11T18:24:40.948Z,15.00
2019-05-11T18:27:11.642Z,14.80
2019-05-11T18:29:42.161Z,14.80
2019-05-11T18:32:11.351Z,14.70
2019-05-11T18:34:42.188Z,14.70
2019-05-11T18:37:12.079Z,14.70
2019-05-11T18:39:41.626Z,14.80
2019-05-11T18:42:10.739Z,14.90
2019-05-11T18:44:40.089Z,14.80
2019-05-11T18:47:09.009Z,14.60
2019-05-11T18:49:39.394Z,14.30
2019-05-11T18:52:09.224Z,14.20
2019-05-11T18:54:42.102Z,14.00
2019-05-11T18:57:11.969Z,14.20
2019-05-11T18:59:42.242Z,14.30
2019-05-11T19:02:14.780Z,14.10
2019-05-11T19:04:44.586Z,13.90
2019-05-11T19:07:17.005Z,14.00
2019-05-11T19:09:44.210Z,14.00
2019-05-11T19:12:13.107Z,14.10
2019-05-11T19:14:41.990Z,13.90
2019-05-11T19:17:10.830Z,13.70
2019-05-11T19:19:39.730Z,13.70
2019-05-11T19:22:09.147Z,13.70
2019-05-11T19:24:38.363Z,13.70
2019-05-11T19:27:08.147Z,13.60
2019-05-11T19:29:37.947Z,13.60
2019-05-11T19:32:10.818Z,13.50
2019-05-11T19:34:38.780Z,13.30
2019-05-11T19:37:08.653Z,13.30
2019-05-11T19:39:38.443Z,13.30
2019-05-11T19:42:07.941Z,13.30
2019-05-11T19:44:38.568Z,13.30
2019-05-11T19:47:08.956Z,13.30
2019-05-11T19:49:38.393Z,13.20
2019-05-11T19:52:08.591Z,13.00
2019-05-11T19:54:38.161Z,13.10
2019-05-11T19:57:08.380Z,13.10
2019-05-11T19:59:38.728Z,13.00
2019-05-11T20:02:08.385Z,13.20
2019-05-11T20:04:38.685Z,13.20
2019-05-11T20:07:08.773Z,13.20
2019-05-11T20:09:38.702Z,13.20
2019-05-11T20:12:07.982Z,13.30
2019-05-11T20:14:37.852Z,13.30
2019-05-11T20:17:08.806Z,13.20
2019-05-11T20:19:38.455Z,13.00
2019-05-11T20:22:07.475Z,13.00
2019-05-11T20:24:36.320Z,12.90
2019-05-11T20:27:05.110Z,12.90
2019-05-11T20:29:34.027Z,12.90
2019-05-11T20:32:02.885Z,12.90
2019-05-11T20:34:31.731Z,12.90
2019-05-11T20:37:00.590Z,12.90
2019-05-11T20:39:29.394Z,12.90
2019-05-11T20:41:58.244Z,12.90
2019-05-11T20:44:28.688Z,12.80
2019-05-11T20:46:58.142Z,12.70
2019-05-11T20:49:28.226Z,12.70
2019-05-11T20:51:58.021Z,12.70
2019-05-11T20:54:28.125Z,12.50
2019-05-11T20:56:58.490Z,12.50
2019-05-11T20:59:29.017Z,12.50
2019-05-11T21:01:58.878Z,12.40
2019-05-11T21:04:28.231Z,12.40
2019-05-11T21:06:58.106Z,12.40
2019-05-11T21:09:28.989Z,12.30
2019-05-11T21:11:58.898Z,12.30
2019-05-11T21:14:28.814Z,12.30
2019-05-11T21:16:58.758Z,12.30
2019-05-11T21:19:28.449Z,12.20
2019-05-11T21:21:59.052Z,12.10
2019-05-11T21:24:28.268Z,12.00
2019-05-11T21:26:58.482Z,12.00
2019-05-11T21:29:30.896Z,12.10
2019-05-11T21:31:59.007Z,12.10
2019-05-11T21:34:28.135Z,12.10
2019-05-11T21:36:56.949Z,12.10
2019-05-11T21:39:25.731Z,12.10
2019-05-11T21:41:58.184Z,12.20
2019-05-11T21:44:27.841Z,12.20
2019-05-11T21:46:57.800Z,12.20
2019-05-11T21:49:26.646Z,12.20
2019-05-11T21:52:04.226Z,12.00
2019-05-11T21:54:29.961Z,11.80
2019-05-11T21:56:57.824Z,11.70
2019-05-11T21:59:27.674Z,11.60
2019-05-11T22:01:57.177Z,11.60
2019-05-11T22:04:28.305Z,11.70
2019-05-11T22:06:58.580Z,11.70
2019-05-11T22:09:27.829Z,11.80
2019-05-11T22:11:57.130Z,11.80
2019-05-11T22:14:29.669Z,11.70
2019-05-11T22:16:59.168Z,11.60
2019-05-11T22:19:26.913Z,11.70
2019-05-11T22:21:58.330Z,11.60
2019-05-11T22:24:28.148Z,11.60
2019-05-11T22:26:57.471Z,11.70
2019-05-11T22:29:28.613Z,11.60
2019-05-11T22:31:58.115Z,11.60
2019-05-11T22:34:28.409Z,11.60
2019-05-11T22:36:59.271Z,11.70
2019-05-11T22:39:27.832Z,11.70
2019-05-11T22:41:58.799Z,11.70
2019-05-11T22:44:27.916Z,11.70
2019-05-11T22:46:58.248Z,11.70
2019-05-11T22:49:28.451Z,11.60
2019-05-11T22:51:59.597Z,11.50
2019-05-11T22:54:28.977Z,11.60
2019-05-11T22:56:58.646Z,11.40
2019-05-11T22:59:28.092Z,11.40
2019-05-11T23:01:57.150Z,11.50
2019-05-11T23:04:28.594Z,11.40
2019-05-11T23:06:58.116Z,11.50
2019-05-11T23:09:27.701Z,11.40
2019-05-11T23:11:58.316Z,11.40
2019-05-11T23:14:28.262Z,11.30
2019-05-11T23:16:58.587Z,11.30
2019-05-11T23:19:27.958Z,11.20
2019-05-11T23:21:58.739Z,11.30
2019-05-11T23:24:28.812Z,11.20
2019-05-11T23:26:58.014Z,10.90
2019-05-11T23:29:27.920Z,11.10
2019-05-11T23:31:58.396Z,11.20
2019-05-11T23:34:28.255Z,11.10
2019-05-11T23:36:59.165Z,11.10
2019-05-11T23:39:28.289Z,11.10
2019-05-11T23:41:58.589Z,11.10
2019-05-11T23:44:27.591Z,11.20
2019-05-11T23:46:56.471Z,11.20
2019-05-11T23:49:25.342Z,11.10
2019-05-11T23:51:54.168Z,11.10
2019-05-11T23:54:23.030Z,11.20
2019-05-11T23:56:51.872Z,11.00
2019-05-11T23:59:20.724Z,11.10
